AAL81 KSAN-KCOS
Flight info
| Callsign | AAL81 |
|---|---|
| Flight time | N/A |
| Altitude | 37000 |
| Route | ZZOOO4 MTBAL LANCY J78 DRK ALS DBRY5 |
| Aircraft | B738/M-SDE2E3FGHIRWXY/LB1 |
Departure
| Time | 2026-04-25 22:25 |
|---|---|
| Airport | San Diego International Airport (KSAN) |
Arrival
| Time | N/A |
|---|---|
| Airport | City of Colorado Springs Municipal Airport (KCOS) |
| Time | Latitude | Longitude | Altitude | Speed | Heading |
|---|---|---|---|---|---|
| 2026-04-25 21:59 | 32.73337 | -117.19766 | 32 ft | 0 kts | 279° |
| 2026-04-25 22:15 | 32.73335 | -117.19750 | 23 ft | 4 kts | 273° |
| 2026-04-25 22:15 | 32.73339 | -117.19722 | 23 ft | 4 kts | 225° |
| 2026-04-25 22:15 | 32.73358 | -117.19710 | 26 ft | 4 kts | 198° |
| 2026-04-25 22:16 | 32.73410 | -117.19692 | 28 ft | 4 kts | 184° |
| 2026-04-25 22:16 | 32.73430 | -117.19695 | 26 ft | 4 kts | 116° |
| 2026-04-25 22:16 | 32.73432 | -117.19699 | 27 ft | 2 kts | 106° |
| 2026-04-25 22:21 | 32.73431 | -117.19697 | 27 ft | 2 kts | 106° |
| 2026-04-25 22:21 | 32.73411 | -117.19620 | 27 ft | 16 kts | 107° |
| 2026-04-25 22:22 | 32.73381 | -117.19492 | 28 ft | 16 kts | 105° |
| 2026-04-25 22:22 | 32.73350 | -117.19369 | 25 ft | 15 kts | 105° |
| 2026-04-25 22:22 | 32.73320 | -117.19240 | 23 ft | 18 kts | 109° |
| 2026-04-25 22:22 | 32.73275 | -117.19062 | 26 ft | 28 kts | 105° |
| 2026-04-25 22:23 | 32.73220 | -117.18835 | 27 ft | 28 kts | 106° |
| 2026-04-25 22:23 | 32.73166 | -117.18617 | 29 ft | 27 kts | 106° |
| 2026-04-25 22:23 | 32.73116 | -117.18414 | 27 ft | 25 kts | 107° |
| 2026-04-25 22:23 | 32.73072 | -117.18223 | 29 ft | 23 kts | 105° |
| 2026-04-25 22:24 | 32.73071 | -117.18127 | 24 ft | 7 kts | 51° |
| 2026-04-25 22:24 | 32.73114 | -117.18117 | 24 ft | 7 kts | 341° |
| 2026-04-25 22:24 | 32.73152 | -117.18149 | 25 ft | 7 kts | 311° |
| 2026-04-25 22:24 | 32.73173 | -117.18207 | 28 ft | 14 kts | 285° |
| 2026-04-25 22:25 | 32.73239 | -117.18471 | 30 ft | 69 kts | 285° |
| 2026-04-25 22:25 | 32.73444 | -117.19345 | 25 ft | 145 kts | 283° |
| 2026-04-25 22:25 | 32.73778 | -117.20646 | 434 ft | 181 kts | 289° |
| 2026-04-25 22:25 | 32.74297 | -117.22153 | 959 ft | 210 kts | 292° |
| 2026-04-25 22:26 | 32.74906 | -117.23764 | 1642 ft | 218 kts | 290° |
| 2026-04-25 22:26 | 32.75444 | -117.25379 | 2827 ft | 203 kts | 288° |
| 2026-04-25 22:26 | 32.75931 | -117.26920 | 3961 ft | 196 kts | 288° |
| 2026-04-25 22:26 | 32.76385 | -117.28423 | 5039 ft | 191 kts | 288° |
| 2026-04-25 22:27 | 32.76782 | -117.30023 | 5224 ft | 224 kts | 282° |
| 2026-04-25 22:27 | 32.77155 | -117.31898 | 5179 ft | 237 kts | 279° |
| 2026-04-25 22:27 | 32.76953 | -117.33811 | 5092 ft | 240 kts | 242° |
| 2026-04-25 22:27 | 32.75796 | -117.35216 | 5067 ft | 240 kts | 218° |
| 2026-04-25 22:28 | 32.74315 | -117.36136 | 5039 ft | 244 kts | 199° |
| 2026-04-25 22:28 | 32.72629 | -117.36241 | 5035 ft | 246 kts | 170° |
| 2026-04-25 22:28 | 32.71082 | -117.35387 | 5042 ft | 251 kts | 142° |
| 2026-04-25 22:28 | 32.69851 | -117.33902 | 5066 ft | 255 kts | 133° |
| 2026-04-25 22:29 | 32.68697 | -117.32282 | 5055 ft | 256 kts | 131° |
| 2026-04-25 22:29 | 32.67558 | -117.30674 | 5049 ft | 253 kts | 131° |
| 2026-04-25 22:29 | 32.66413 | -117.29079 | 4850 ft | 257 kts | 132° |
| 2026-04-25 22:30 | 32.63954 | -117.25695 | 5397 ft | 275 kts | 131° |
| 2026-04-25 22:30 | 32.63065 | -117.23719 | 5892 ft | 280 kts | 103° |
| 2026-04-25 22:30 | 32.62803 | -117.21421 | 6394 ft | 284 kts | 97° |
| 2026-04-25 22:30 | 32.62671 | -117.19859 | 6882 ft | 277 kts | 97° |
| 2026-04-25 22:31 | 32.62430 | -117.16911 | 7845 ft | 271 kts | 98° |
| 2026-04-25 22:31 | 32.62239 | -117.14638 | 8187 ft | 286 kts | 98° |
| 2026-04-25 22:31 | 32.62029 | -117.12226 | 8562 ft | 301 kts | 99° |
| 2026-04-25 22:31 | 32.61810 | -117.09726 | 9266 ft | 307 kts | 99° |
| 2026-04-25 22:32 | 32.61586 | -117.07190 | 10024 ft | 312 kts | 100° |
| 2026-04-25 22:32 | 32.61351 | -117.04575 | 10451 ft | 330 kts | 100° |
| 2026-04-25 22:32 | 32.61095 | -117.01760 | 10647 ft | 355 kts | 100° |
| 2026-04-25 22:32 | 32.60826 | -116.98773 | 10991 ft | 370 kts | 100° |
| 2026-04-25 22:33 | 32.60554 | -116.95734 | 11723 ft | 372 kts | 100° |
| 2026-04-25 22:33 | 32.60282 | -116.92656 | 12378 ft | 379 kts | 99° |
| 2026-04-25 22:33 | 32.60460 | -116.89493 | 12988 ft | 393 kts | 79° |
| 2026-04-25 22:33 | 32.61170 | -116.86337 | 13665 ft | 399 kts | 78° |
| 2026-04-25 22:34 | 32.61867 | -116.83117 | 14234 ft | 405 kts | 79° |
| 2026-04-25 22:34 | 32.62740 | -116.79932 | 14836 ft | 412 kts | 63° |
| 2026-04-25 22:34 | 32.64478 | -116.77226 | 15428 ft | 416 kts | 41° |
| 2026-04-25 22:34 | 32.66816 | -116.75326 | 16065 ft | 413 kts | 21° |
| 2026-04-25 22:35 | 32.69467 | -116.74019 | 16695 ft | 413 kts | 17° |
| 2026-04-25 22:35 | 32.72154 | -116.72754 | 17261 ft | 418 kts | 17° |
| 2026-04-25 22:35 | 32.74877 | -116.71474 | 17850 ft | 423 kts | 18° |
| 2026-04-25 22:35 | 32.77612 | -116.70171 | 18506 ft | 424 kts | 18° |
| 2026-04-25 22:36 | 32.80356 | -116.68849 | 19035 ft | 427 kts | 18° |
| 2026-04-25 22:36 | 32.83110 | -116.67509 | 19567 ft | 430 kts | 18° |
| 2026-04-25 22:36 | 32.85894 | -116.66147 | 20075 ft | 433 kts | 19° |
| 2026-04-25 22:36 | 32.88689 | -116.64774 | 20581 ft | 436 kts | 19° |
| 2026-04-25 22:37 | 32.91498 | -116.63387 | 21096 ft | 439 kts | 19° |
| 2026-04-25 22:37 | 32.94333 | -116.61988 | 21586 ft | 443 kts | 19° |
| 2026-04-25 22:37 | 32.97194 | -116.60595 | 22056 ft | 446 kts | 19° |
| 2026-04-25 22:37 | 33.00075 | -116.59179 | 22542 ft | 449 kts | 19° |
| 2026-04-25 22:38 | 33.02963 | -116.57733 | 23011 ft | 452 kts | 20° |
| 2026-04-25 22:38 | 33.05860 | -116.56231 | 23446 ft | 455 kts | 21° |
| 2026-04-25 22:38 | 33.08714 | -116.54694 | 23866 ft | 457 kts | 21° |
| 2026-04-25 22:38 | 33.11623 | -116.53142 | 24257 ft | 459 kts | 20° |
| 2026-04-25 22:39 | 33.14556 | -116.51612 | 24610 ft | 462 kts | 20° |
| 2026-04-25 22:39 | 33.17514 | -116.50067 | 24961 ft | 465 kts | 20° |
| 2026-04-25 22:39 | 33.20489 | -116.48515 | 25315 ft | 468 kts | 20° |
| 2026-04-25 22:39 | 33.23489 | -116.46952 | 25663 ft | 471 kts | 20° |
| 2026-04-25 22:40 | 33.25487 | -116.45909 | 25901 ft | 473 kts | 19° |
| 2026-04-25 22:40 | 33.28502 | -116.44317 | 26278 ft | 475 kts | 20° |
| 2026-04-25 22:40 | 33.31519 | -116.42667 | 26570 ft | 479 kts | 19° |
| 2026-04-25 22:40 | 33.34590 | -116.41084 | 26859 ft | 482 kts | 18° |
| 2026-04-25 22:41 | 33.37673 | -116.39487 | 27222 ft | 485 kts | 21° |
| 2026-04-25 22:41 | 33.40511 | -116.37242 | 27500 ft | 496 kts | 41° |
| 2026-04-25 22:41 | 33.42737 | -116.34068 | 27861 ft | 500 kts | 53° |
| 2026-04-25 22:41 | 33.44743 | -116.30656 | 28200 ft | 503 kts | 54° |
| 2026-04-25 22:42 | 33.46733 | -116.27186 | 28412 ft | 507 kts | 54° |
| 2026-04-25 22:42 | 33.48745 | -116.23701 | 28604 ft | 511 kts | 54° |
| 2026-04-25 22:42 | 33.50794 | -116.20211 | 28888 ft | 513 kts | 53° |
| 2026-04-25 22:42 | 33.52866 | -116.16727 | 29220 ft | 514 kts | 53° |
| 2026-04-25 22:43 | 33.54956 | -116.13234 | 29501 ft | 516 kts | 53° |
| 2026-04-25 22:43 | 33.57061 | -116.09718 | 29738 ft | 520 kts | 53° |
| 2026-04-25 22:43 | 33.59167 | -116.06192 | 29982 ft | 522 kts | 53° |
| 2026-04-25 22:43 | 33.61147 | -116.02521 | 30172 ft | 526 kts | 63° |
| 2026-04-25 22:44 | 33.62692 | -115.98535 | 30384 ft | 528 kts | 68° |
| 2026-04-25 22:44 | 33.64083 | -115.94448 | 30594 ft | 531 kts | 69° |
| 2026-04-25 22:44 | 33.65424 | -115.90317 | 30839 ft | 532 kts | 70° |
| 2026-04-25 22:44 | 33.66746 | -115.86240 | 31131 ft | 532 kts | 70° |
| 2026-04-25 22:45 | 33.68112 | -115.82110 | 31415 ft | 532 kts | 69° |
| 2026-04-25 22:45 | 33.69508 | -115.77982 | 31658 ft | 534 kts | 69° |
| 2026-04-25 22:45 | 33.70929 | -115.73852 | 31906 ft | 536 kts | 69° |
| 2026-04-25 22:45 | 33.72365 | -115.69725 | 32153 ft | 536 kts | 68° |
| 2026-04-25 22:46 | 33.73810 | -115.65583 | 32406 ft | 537 kts | 68° |
| 2026-04-25 22:46 | 33.75251 | -115.61448 | 32647 ft | 538 kts | 68° |
| 2026-04-25 22:46 | 33.76693 | -115.57300 | 32894 ft | 539 kts | 68° |
| 2026-04-25 22:46 | 33.78136 | -115.53137 | 33109 ft | 540 kts | 69° |
| 2026-04-25 22:47 | 33.79577 | -115.48969 | 33329 ft | 541 kts | 69° |
| 2026-04-25 22:47 | 33.81021 | -115.44782 | 33557 ft | 541 kts | 69° |
| 2026-04-25 22:47 | 33.82461 | -115.40600 | 33784 ft | 542 kts | 69° |
| 2026-04-25 22:47 | 33.83907 | -115.36395 | 33971 ft | 543 kts | 69° |
| 2026-04-25 22:48 | 33.85349 | -115.32197 | 34201 ft | 543 kts | 69° |
| 2026-04-25 22:48 | 33.86789 | -115.28001 | 34441 ft | 543 kts | 69° |
| 2026-04-25 22:48 | 33.88228 | -115.23803 | 34645 ft | 543 kts | 69° |
| 2026-04-25 22:48 | 33.89666 | -115.19600 | 34857 ft | 543 kts | 69° |
| 2026-04-25 22:49 | 33.91104 | -115.15393 | 35072 ft | 543 kts | 69° |
| 2026-04-25 22:49 | 33.92508 | -115.11278 | 35284 ft | 543 kts | 69° |
| 2026-04-25 22:49 | 33.93972 | -115.06984 | 35513 ft | 543 kts | 69° |
| 2026-04-25 22:49 | 33.95343 | -115.02955 | 36294 ft | 527 kts | 68° |
| 2026-04-25 22:50 | 33.96697 | -114.98974 | 36906 ft | 508 kts | 68° |
| 2026-04-25 22:50 | 33.98026 | -114.95061 | 36606 ft | 502 kts | 68° |
| 2026-04-25 22:50 | 33.99363 | -114.91172 | 35825 ft | 506 kts | 68° |
| 2026-04-25 22:50 | 34.00782 | -114.87075 | 31457 ft | 544 kts | 63° |
| 2026-04-25 22:51 | 34.02204 | -114.84180 | 19147 ft | 300 kts | 81° |
| 2026-04-25 22:51 | 34.02955 | -114.83058 | 2116 ft | 118 kts | 341° |
| 2026-04-25 22:51 | 34.03036 | -114.83006 | 692 ft | 0 kts | 251° |